createdAt,value
2018-03-27T00:00:25.297Z,5.87
2018-03-27T00:02:51.081Z,5.85
2018-03-27T00:05:16.842Z,5.83
2018-03-27T00:07:42.588Z,5.78
2018-03-27T00:10:08.405Z,5.80
2018-03-27T00:12:34.156Z,5.88
2018-03-27T00:14:59.905Z,5.93
2018-03-27T00:17:25.657Z,6.01
2018-03-27T00:19:51.959Z,6.01
2018-03-27T00:22:17.723Z,6.01
2018-03-27T00:24:43.512Z,6.02
2018-03-27T00:27:09.178Z,6.03
2018-03-27T00:29:47.296Z,6.03
2018-03-27T00:32:25.302Z,6.05
2018-03-27T00:35:03.304Z,6.05
2018-03-27T00:37:41.564Z,6.05
2018-03-27T00:40:19.541Z,6.04
2018-03-27T00:42:50.161Z,6.04
2018-03-27T00:45:15.924Z,5.98
2018-03-27T00:47:41.677Z,6.01
2018-03-27T00:50:08.025Z,5.99
2018-03-27T00:52:33.798Z,6.00
2018-03-27T00:54:59.550Z,5.99
2018-03-27T00:57:25.331Z,5.98
2018-03-27T00:59:51.112Z,5.97
2018-03-27T01:02:16.883Z,6.00
2018-03-27T01:04:42.628Z,6.03
2018-03-27T01:07:08.401Z,6.03
2018-03-27T01:09:34.165Z,5.91
2018-03-27T01:11:59.917Z,6.06
2018-03-27T01:14:25.694Z,6.10
2018-03-27T01:16:51.438Z,6.07
2018-03-27T01:19:17.449Z,6.06
2018-03-27T01:21:43.240Z,6.02
2018-03-27T01:24:08.992Z,5.97
2018-03-27T01:26:34.752Z,5.89
2018-03-27T01:29:00.518Z,5.96
2018-03-27T01:31:26.266Z,6.03
2018-03-27T01:33:52.029Z,6.00
2018-03-27T01:36:17.921Z,5.94
2018-03-27T01:38:43.673Z,5.96
2018-03-27T01:41:09.432Z,5.99
2018-03-27T01:43:35.174Z,6.06
2018-03-27T01:46:00.921Z,6.14
2018-03-27T01:48:26.713Z,6.19
2018-03-27T01:50:52.478Z,6.18
2018-03-27T01:53:18.437Z,6.03
2018-03-27T01:55:44.205Z,5.95
2018-03-27T01:58:09.955Z,5.95
2018-03-27T02:00:35.693Z,6.01
2018-03-27T02:03:01.466Z,6.05
2018-03-27T02:05:27.263Z,6.00
2018-03-27T02:07:53.025Z,5.97
2018-03-27T02:10:18.826Z,5.95
2018-03-27T02:12:50.688Z,5.94
2018-03-27T02:15:22.558Z,6.04
2018-03-27T02:17:54.463Z,6.07
2018-03-27T02:20:41.461Z,6.07
2018-03-27T02:23:09.345Z,6.07
2018-03-27T02:25:35.097Z,6.08
2018-03-27T02:28:01.805Z,6.10
2018-03-27T02:30:27.556Z,6.11
2018-03-27T02:32:53.306Z,6.11
2018-03-27T02:35:19.073Z,6.11
2018-03-27T02:37:44.842Z,6.10
2018-03-27T02:40:10.602Z,6.16
2018-03-27T02:42:36.375Z,6.23
2018-03-27T02:45:02.139Z,6.12
2018-03-27T02:47:27.881Z,6.00
2018-03-27T02:49:54.141Z,5.95
2018-03-27T02:52:19.902Z,5.87
2018-03-27T02:54:45.649Z,5.83
2018-03-27T02:57:11.457Z,5.82
2018-03-27T02:59:37.226Z,5.82
2018-03-27T03:02:02.995Z,5.80
2018-03-27T03:04:28.787Z,5.82
2018-03-27T03:06:54.554Z,5.84
2018-03-27T03:09:20.321Z,5.94
2018-03-27T03:11:46.084Z,5.96
2018-03-27T03:14:11.852Z,6.08
2018-03-27T03:16:37.604Z,6.11
2018-03-27T03:19:03.577Z,6.10
2018-03-27T03:21:29.313Z,6.09
2018-03-27T03:23:55.061Z,6.11
2018-03-27T03:26:20.844Z,6.15
2018-03-27T03:28:46.576Z,6.12
2018-03-27T03:31:12.314Z,6.10
2018-03-27T03:33:38.090Z,6.09
2018-03-27T03:36:03.850Z,6.15
2018-03-27T03:38:29.594Z,6.15
2018-03-27T03:40:55.342Z,6.16
2018-03-27T03:43:21.101Z,6.13
2018-03-27T03:45:46.861Z,6.14
2018-03-27T03:48:12.633Z,6.12
2018-03-27T03:50:38.566Z,6.13
2018-03-27T03:53:04.409Z,6.14
2018-03-27T03:55:30.096Z,6.17
2018-03-27T03:57:55.836Z,6.21
2018-03-27T04:00:21.603Z,6.25
2018-03-27T04:02:47.353Z,6.26
2018-03-27T04:05:13.132Z,6.25
2018-03-27T04:07:38.893Z,6.23
2018-03-27T04:10:04.667Z,6.23
2018-03-27T04:12:30.425Z,6.21
2018-03-27T04:14:56.194Z,6.03
2018-03-27T04:17:21.952Z,6.24
2018-03-27T04:19:47.756Z,6.24
2018-03-27T04:22:13.908Z,6.27
2018-03-27T04:24:39.694Z,6.28
2018-03-27T04:27:05.443Z,6.29
2018-03-27T04:29:31.236Z,6.29
2018-03-27T04:31:56.975Z,6.33
2018-03-27T04:34:22.728Z,6.33
2018-03-27T04:36:48.499Z,6.32
2018-03-27T04:39:14.245Z,6.37
2018-03-27T04:41:39.993Z,6.41
2018-03-27T04:44:05.771Z,6.41
2018-03-27T04:46:31.516Z,6.48
2018-03-27T04:48:57.283Z,6.49
2018-03-27T04:51:23.313Z,6.58
2018-03-27T04:53:49.060Z,6.52
2018-03-27T04:56:14.814Z,6.50
2018-03-27T04:58:40.570Z,6.50
2018-03-27T05:01:06.333Z,6.51
2018-03-27T05:03:32.082Z,6.50
2018-03-27T05:05:57.868Z,6.52
2018-03-27T05:08:23.618Z,6.51
2018-03-27T05:10:49.399Z,6.50
2018-03-27T05:13:15.154Z,6.48
2018-03-27T05:15:40.908Z,6.50
2018-03-27T05:18:07.111Z,6.48
2018-03-27T05:20:32.881Z,6.50
2018-03-27T05:22:58.628Z,6.52
2018-03-27T05:25:24.389Z,6.52
2018-03-27T05:27:50.173Z,6.40
2018-03-27T05:30:15.917Z,6.27
2018-03-27T05:32:41.677Z,6.24
2018-03-27T05:35:07.969Z,6.27
2018-03-27T05:37:33.741Z,6.35
2018-03-27T05:39:59.484Z,6.39
2018-03-27T05:42:25.261Z,6.43
2018-03-27T05:44:51.009Z,6.48
2018-03-27T05:47:16.750Z,6.49
2018-03-27T05:49:42.513Z,6.52
2018-03-27T05:52:08.253Z,6.51
2018-03-27T05:54:34.009Z,6.53
2018-03-27T05:57:00.073Z,6.59
2018-03-27T05:59:25.833Z,6.62
2018-03-27T06:01:51.601Z,6.66
2018-03-27T06:04:17.361Z,6.73
2018-03-27T06:06:43.111Z,6.74
2018-03-27T06:09:08.905Z,6.69
2018-03-27T06:11:34.681Z,6.73
2018-03-27T06:14:00.433Z,6.70
2018-03-27T06:16:26.209Z,6.66
2018-03-27T06:18:51.991Z,6.77
2018-03-27T06:21:17.733Z,6.84
2018-03-27T06:23:43.497Z,6.92
2018-03-27T06:26:09.449Z,6.96
2018-03-27T06:28:35.197Z,7.02
2018-03-27T06:31:00.982Z,7.09
2018-03-27T06:33:26.746Z,7.10
2018-03-27T06:35:52.501Z,7.18
2018-03-27T06:38:18.246Z,7.29
2018-03-27T06:40:44.025Z,7.39
2018-03-27T06:43:09.775Z,7.45
2018-03-27T06:45:35.533Z,7.50
2018-03-27T06:48:01.509Z,7.56
2018-03-27T06:50:27.257Z,7.61
2018-03-27T06:52:53.383Z,7.69
2018-03-27T06:55:19.188Z,7.76
2018-03-27T06:57:44.918Z,7.79
2018-03-27T07:00:10.693Z,7.89
2018-03-27T07:02:36.472Z,7.95
2018-03-27T07:05:02.229Z,8.02
2018-03-27T07:07:27.991Z,8.10
2018-03-27T07:09:53.767Z,8.13
2018-03-27T07:12:19.500Z,8.22
2018-03-27T07:14:45.246Z,8.31
2018-03-27T07:17:11.332Z,8.28
2018-03-27T07:19:37.076Z,8.33
2018-03-27T07:22:02.837Z,8.37
2018-03-27T07:24:28.605Z,8.45
2018-03-27T07:26:54.357Z,8.52
2018-03-27T07:29:20.136Z,8.60
2018-03-27T07:31:46.089Z,8.58
2018-03-27T07:34:12.605Z,8.58
2018-03-27T07:36:38.414Z,8.64
2018-03-27T07:39:04.432Z,8.73
2018-03-27T07:41:30.190Z,8.84
2018-03-27T07:43:55.964Z,8.84
2018-03-27T07:46:21.745Z,8.95
2018-03-27T07:48:47.503Z,8.99
2018-03-27T07:51:13.491Z,9.04
2018-03-27T07:53:39.272Z,9.13
2018-03-27T07:56:05.045Z,9.25
2018-03-27T07:58:30.793Z,9.34
2018-03-27T08:00:56.610Z,9.37
2018-03-27T08:03:22.345Z,9.44
2018-03-27T08:05:48.118Z,9.67
2018-03-27T08:08:14.042Z,9.81
2018-03-27T08:10:39.789Z,9.90
2018-03-27T08:13:05.545Z,9.96
2018-03-27T08:15:31.301Z,10.01
2018-03-27T08:17:57.037Z,10.06
2018-03-27T08:20:22.835Z,10.15
2018-03-27T08:22:48.572Z,10.24
2018-03-27T08:25:14.554Z,10.34
2018-03-27T08:27:40.322Z,10.42
2018-03-27T08:30:06.068Z,10.54
2018-03-27T08:32:31.840Z,10.64
2018-03-27T08:34:57.672Z,10.70
2018-03-27T08:37:23.409Z,10.79
2018-03-27T08:39:49.155Z,10.80
2018-03-27T08:42:14.912Z,10.84
2018-03-27T08:44:40.660Z,10.96
2018-03-27T08:47:06.441Z,11.06
2018-03-27T08:49:32.200Z,11.15
2018-03-27T08:51:58.260Z,11.25
2018-03-27T08:54:24.022Z,11.23
2018-03-27T08:56:49.777Z,11.25
2018-03-27T08:59:15.545Z,11.30
2018-03-27T09:01:41.309Z,11.40
2018-03-27T09:04:07.046Z,11.52
2018-03-27T09:06:32.790Z,11.64
2018-03-27T09:08:58.546Z,11.76
2018-03-27T09:11:24.277Z,11.79
2018-03-27T09:13:50.037Z,11.83
2018-03-27T09:16:15.849Z,11.90
2018-03-27T09:18:41.613Z,11.89
2018-03-27T09:21:07.353Z,11.90
2018-03-27T09:23:33.112Z,11.92
2018-03-27T09:25:59.128Z,11.99
2018-03-27T09:28:24.877Z,11.95
2018-03-27T09:30:50.657Z,11.90
2018-03-27T09:33:16.410Z,11.83
2018-03-27T09:35:42.182Z,11.76
2018-03-27T09:38:07.975Z,11.76
2018-03-27T09:40:33.728Z,11.76
2018-03-27T09:42:59.491Z,11.78
2018-03-27T09:45:25.249Z,11.79
2018-03-27T09:47:51.008Z,11.93
2018-03-27T09:50:17.207Z,12.09
2018-03-27T09:52:42.959Z,12.21
2018-03-27T09:55:08.723Z,12.11
2018-03-27T09:57:34.485Z,12.35
2018-03-27T10:00:00.242Z,12.37
2018-03-27T10:02:25.994Z,12.43
2018-03-27T10:04:51.757Z,12.42
2018-03-27T10:07:17.501Z,12.40
2018-03-27T10:09:43.252Z,12.28
2018-03-27T10:12:09.017Z,12.28
2018-03-27T10:14:34.788Z,12.24
2018-03-27T10:17:00.573Z,12.23
2018-03-27T10:19:26.523Z,12.21
2018-03-27T10:21:52.274Z,12.30
2018-03-27T10:24:18.039Z,12.37
2018-03-27T10:26:43.804Z,12.41
2018-03-27T10:29:09.537Z,12.54
2018-03-27T10:31:35.273Z,12.63
2018-03-27T10:34:01.063Z,12.73
2018-03-27T10:36:26.809Z,12.80
2018-03-27T10:38:52.545Z,12.82
2018-03-27T10:41:18.321Z,12.88
2018-03-27T10:43:44.063Z,12.99
2018-03-27T10:46:09.863Z,13.16
2018-03-27T10:48:35.615Z,13.34
2018-03-27T10:51:01.654Z,13.57
2018-03-27T10:53:27.412Z,13.64
2018-03-27T10:55:53.177Z,13.67
2018-03-27T10:58:18.921Z,13.71
2018-03-27T11:00:44.676Z,13.77
2018-03-27T11:03:10.434Z,13.92
2018-03-27T11:05:36.181Z,14.02
2018-03-27T11:08:01.941Z,14.19
2018-03-27T11:10:27.699Z,14.25
2018-03-27T11:12:53.468Z,14.24
2018-03-27T11:15:19.201Z,14.29
2018-03-27T11:17:45.074Z,14.35
2018-03-27T11:20:10.829Z,14.29
2018-03-27T11:22:36.605Z,14.22
2018-03-27T11:25:02.361Z,14.11
2018-03-27T11:27:28.150Z,14.18
2018-03-27T11:29:53.893Z,14.25
2018-03-27T11:32:19.641Z,14.26
2018-03-27T11:34:45.785Z,14.27
2018-03-27T11:37:11.559Z,14.11
2018-03-27T11:39:37.300Z,14.04
2018-03-27T11:42:03.085Z,13.97
2018-03-27T11:44:28.834Z,14.01
2018-03-27T11:46:54.584Z,14.09
2018-03-27T11:49:20.334Z,14.17
2018-03-27T11:51:46.105Z,14.16
2018-03-27T11:54:11.871Z,14.17
2018-03-27T11:56:37.634Z,14.31
2018-03-27T11:59:03.676Z,14.33
2018-03-27T12:01:29.441Z,14.50
2018-03-27T12:03:55.189Z,14.67
2018-03-27T12:06:20.950Z,14.66
2018-03-27T12:08:46.697Z,14.85
2018-03-27T12:11:12.471Z,14.89
2018-03-27T12:13:38.233Z,14.92
2018-03-27T12:16:03.974Z,14.92
2018-03-27T12:18:30.010Z,14.96
2018-03-27T12:20:55.769Z,14.93
2018-03-27T12:23:21.525Z,14.94
2018-03-27T12:25:47.298Z,14.90
2018-03-27T12:28:13.046Z,15.04
2018-03-27T12:30:38.801Z,15.19
2018-03-27T12:33:04.561Z,15.27
2018-03-27T12:35:30.622Z,15.32
2018-03-27T12:37:56.393Z,15.37
2018-03-27T12:40:22.312Z,15.43
2018-03-27T12:42:48.137Z,15.45
2018-03-27T12:45:13.888Z,15.46
2018-03-27T12:47:39.672Z,15.41
2018-03-27T12:50:05.431Z,15.33
2018-03-27T12:52:31.206Z,15.36
2018-03-27T12:54:57.289Z,15.43
2018-03-27T12:57:23.057Z,15.56
2018-03-27T12:59:48.818Z,15.62
2018-03-27T13:02:14.573Z,15.58
2018-03-27T13:04:40.326Z,15.31
2018-03-27T13:07:06.076Z,15.24
2018-03-27T13:09:31.859Z,15.09
2018-03-27T13:11:57.600Z,14.98
2018-03-27T13:14:23.354Z,14.94
2018-03-27T13:16:49.121Z,14.95
2018-03-27T13:19:14.890Z,15.00
2018-03-27T13:21:40.881Z,14.97
2018-03-27T13:24:06.653Z,14.91
2018-03-27T13:26:32.401Z,14.90
2018-03-27T13:28:58.145Z,14.75
2018-03-27T13:31:23.905Z,14.69
2018-03-27T13:33:49.648Z,14.54
2018-03-27T13:36:15.431Z,14.33
2018-03-27T13:38:41.204Z,14.36
2018-03-27T13:41:06.953Z,14.26
2018-03-27T13:43:32.698Z,14.47
2018-03-27T13:45:58.465Z,14.51
2018-03-27T13:48:24.569Z,14.46
2018-03-27T13:50:50.321Z,14.43
2018-03-27T13:53:16.074Z,14.43
2018-03-27T13:55:41.825Z,14.41
2018-03-27T13:58:07.577Z,14.43
2018-03-27T14:00:33.361Z,14.39
2018-03-27T14:02:59.117Z,14.26
2018-03-27T14:05:25.405Z,14.05
2018-03-27T14:07:51.205Z,13.93
2018-03-27T14:10:16.984Z,13.70
2018-03-27T14:12:42.750Z,13.80
2018-03-27T14:15:08.499Z,13.94
2018-03-27T14:17:34.260Z,14.07
2018-03-27T14:20:00.023Z,14.18
2018-03-27T14:22:25.796Z,14.25
2018-03-27T14:24:51.772Z,14.23
2018-03-27T14:27:17.549Z,14.12
2018-03-27T14:29:43.289Z,14.05
2018-03-27T14:32:09.058Z,14.05
2018-03-27T14:34:34.829Z,13.95
2018-03-27T14:37:00.568Z,13.94
2018-03-27T14:39:26.320Z,13.91
2018-03-27T14:41:52.073Z,13.93
2018-03-27T14:44:17.829Z,14.00
2018-03-27T14:46:43.610Z,14.08
2018-03-27T14:49:09.354Z,14.13
2018-03-27T14:51:35.252Z,14.11
2018-03-27T14:54:01.046Z,14.16
2018-03-27T14:56:26.793Z,14.21
2018-03-27T14:58:52.566Z,14.28
2018-03-27T15:01:18.396Z,14.37
2018-03-27T15:03:44.314Z,14.26
2018-03-27T15:06:10.085Z,14.09
2018-03-27T15:08:35.856Z,13.99
2018-03-27T15:11:01.593Z,13.90
2018-03-27T15:13:27.337Z,13.87
2018-03-27T15:15:53.108Z,13.79
2018-03-27T15:18:18.884Z,13.72
2018-03-27T15:20:44.886Z,13.72
2018-03-27T15:23:10.673Z,13.70
2018-03-27T15:25:36.453Z,13.64
2018-03-27T15:28:02.226Z,13.62
2018-03-27T15:30:28.005Z,13.62
2018-03-27T15:32:53.763Z,13.60
2018-03-27T15:35:19.533Z,13.58
2018-03-27T15:37:45.725Z,13.50
2018-03-27T15:40:11.480Z,13.47
2018-03-27T15:42:37.229Z,13.49
2018-03-27T15:45:02.990Z,13.47
2018-03-27T15:47:28.748Z,13.46
2018-03-27T15:49:54.529Z,13.36
2018-03-27T15:52:20.309Z,13.29
2018-03-27T15:54:46.235Z,13.19
2018-03-27T15:57:12.001Z,13.08
2018-03-27T15:59:37.745Z,12.99
2018-03-27T16:02:03.504Z,12.97
2018-03-27T16:04:29.278Z,12.96
2018-03-27T16:06:55.040Z,13.00
2018-03-27T16:09:20.828Z,12.96
2018-03-27T16:11:46.589Z,12.91
2018-03-27T16:14:12.329Z,12.89
2018-03-27T16:16:38.101Z,12.89
2018-03-27T16:19:04.287Z,12.83
2018-03-27T16:21:30.046Z,12.81
2018-03-27T16:23:55.796Z,12.80
2018-03-27T16:26:21.560Z,12.78
2018-03-27T16:28:47.303Z,12.70
2018-03-27T16:31:13.051Z,12.69
2018-03-27T16:33:38.817Z,12.67
2018-03-27T16:36:04.905Z,12.66
2018-03-27T16:38:30.657Z,12.66
2018-03-27T16:40:56.434Z,12.66
2018-03-27T16:43:22.180Z,12.67
2018-03-27T16:45:47.938Z,12.68
2018-03-27T16:48:13.695Z,12.69
2018-03-27T16:50:39.467Z,12.66
2018-03-27T16:53:05.208Z,12.65
2018-03-27T16:55:31.217Z,12.60
2018-03-27T16:57:56.999Z,12.56
2018-03-27T17:00:22.733Z,12.50
2018-03-27T17:02:48.528Z,12.45
2018-03-27T17:05:14.293Z,12.43
2018-03-27T17:07:40.027Z,12.37
2018-03-27T17:10:05.796Z,12.31
2018-03-27T17:12:31.561Z,12.26
2018-03-27T17:15:05.459Z,12.20
2018-03-27T17:17:31.235Z,12.12
2018-03-27T17:19:56.993Z,12.07
2018-03-27T17:22:22.764Z,11.98
2018-03-27T17:24:48.518Z,11.91
2018-03-27T17:27:14.418Z,11.88
2018-03-27T17:29:40.182Z,11.85
2018-03-27T17:32:05.918Z,11.71
2018-03-27T17:34:31.670Z,11.76
2018-03-27T17:36:57.439Z,11.67
2018-03-27T17:39:23.196Z,11.64
2018-03-27T17:41:48.947Z,11.55
2018-03-27T17:44:14.700Z,11.42
2018-03-27T17:46:40.449Z,11.39
2018-03-27T17:49:06.199Z,11.34
2018-03-27T17:51:32.019Z,11.30
2018-03-27T17:53:57.805Z,11.27
2018-03-27T17:56:23.885Z,11.18
2018-03-27T17:58:49.676Z,11.17
2018-03-27T18:01:15.453Z,11.14
2018-03-27T18:03:41.217Z,11.12
2018-03-27T18:06:07.005Z,11.08
2018-03-27T18:08:32.753Z,11.03
2018-03-27T18:10:58.501Z,10.96
2018-03-27T18:13:24.263Z,10.89
2018-03-27T18:15:50.025Z,10.81
2018-03-27T18:18:15.794Z,10.77
2018-03-27T18:20:41.571Z,10.75
2018-03-27T18:23:07.587Z,10.73
2018-03-27T18:25:33.366Z,10.73
2018-03-27T18:27:59.137Z,10.68
2018-03-27T18:30:24.900Z,10.65
2018-03-27T18:32:50.669Z,10.62
2018-03-27T18:35:16.401Z,10.58
2018-03-27T18:37:42.154Z,10.59
2018-03-27T18:40:08.402Z,10.58
2018-03-27T18:42:34.205Z,10.58
2018-03-27T18:44:59.954Z,10.53
2018-03-27T18:47:25.729Z,10.46
2018-03-27T18:49:51.478Z,10.41
2018-03-27T18:52:17.238Z,10.37
2018-03-27T18:54:43.008Z,10.28
2018-03-27T18:57:09.017Z,10.27
2018-03-27T18:59:34.777Z,10.24
2018-03-27T19:02:00.545Z,10.20
2018-03-27T19:04:26.287Z,10.19
2018-03-27T19:06:52.047Z,10.19
2018-03-27T19:09:17.848Z,10.07
2018-03-27T19:11:43.659Z,10.12
2018-03-27T19:14:09.447Z,10.11
2018-03-27T19:16:35.209Z,10.09
2018-03-27T19:19:00.965Z,10.07
2018-03-27T19:21:27.129Z,10.00
2018-03-27T19:23:52.881Z,9.93
2018-03-27T19:26:18.643Z,9.90
2018-03-27T19:28:44.404Z,9.84
2018-03-27T19:31:10.169Z,9.84
2018-03-27T19:33:35.919Z,9.83
2018-03-27T19:36:01.673Z,9.81
2018-03-27T19:38:27.433Z,9.81
2018-03-27T19:40:53.195Z,9.80
2018-03-27T19:43:18.973Z,9.83
2018-03-27T19:45:44.719Z,9.84
2018-03-27T19:48:10.533Z,9.81
2018-03-27T19:50:36.721Z,9.78
2018-03-27T19:53:02.526Z,9.71
2018-03-27T19:55:28.265Z,9.71
2018-03-27T19:57:54.032Z,9.72
2018-03-27T20:00:19.795Z,9.72
2018-03-27T20:02:45.553Z,9.72
2018-03-27T20:05:11.330Z,9.66
2018-03-27T20:07:37.429Z,9.56
2018-03-27T20:10:03.200Z,9.47
2018-03-27T20:12:28.952Z,9.43
2018-03-27T20:14:54.717Z,9.44
2018-03-27T20:17:20.505Z,9.45
2018-03-27T20:19:46.277Z,9.48
2018-03-27T20:22:12.021Z,9.47
2018-03-27T20:24:37.757Z,9.46
2018-03-27T20:27:04.003Z,9.46
2018-03-27T20:29:29.765Z,9.48
2018-03-27T20:31:55.523Z,9.47
2018-03-27T20:34:21.296Z,9.49
2018-03-27T20:36:47.053Z,9.46
2018-03-27T20:39:12.833Z,9.43
2018-03-27T20:41:38.590Z,9.39
2018-03-27T20:44:04.345Z,9.39
2018-03-27T20:46:30.103Z,9.34
2018-03-27T20:48:55.953Z,9.33
2018-03-27T20:51:21.645Z,9.34
2018-03-27T20:53:47.417Z,9.33
2018-03-27T20:56:13.841Z,9.29
2018-03-27T20:58:39.586Z,9.26
2018-03-27T21:01:05.328Z,9.29
2018-03-27T21:03:31.101Z,9.26
2018-03-27T21:05:56.857Z,9.25
2018-03-27T21:08:22.621Z,9.23
2018-03-27T21:10:48.392Z,9.28
2018-03-27T21:13:14.153Z,9.28
2018-03-27T21:15:39.910Z,9.25
2018-03-27T21:18:05.769Z,9.23
2018-03-27T21:20:31.550Z,9.25
2018-03-27T21:22:57.305Z,9.24
2018-03-27T21:25:23.441Z,9.23
2018-03-27T21:27:49.218Z,9.21
2018-03-27T21:30:15.013Z,9.17
2018-03-27T21:32:40.773Z,9.17
2018-03-27T21:35:06.568Z,9.13
2018-03-27T21:37:32.313Z,9.13
2018-03-27T21:39:58.085Z,9.11
2018-03-27T21:42:23.850Z,9.13
2018-03-27T21:44:49.590Z,9.16
2018-03-27T21:47:15.369Z,9.15
2018-03-27T21:49:41.125Z,9.16
2018-03-27T21:52:06.934Z,9.17
2018-03-27T21:54:33.172Z,9.11
2018-03-27T21:56:58.949Z,9.00
2018-03-27T21:59:24.777Z,9.12
2018-03-27T22:01:50.798Z,9.11
2018-03-27T22:04:16.550Z,9.07
2018-03-27T22:06:42.305Z,9.06
2018-03-27T22:09:08.113Z,9.06
2018-03-27T22:11:40.789Z,9.05
2018-03-27T22:14:06.540Z,9.01
2018-03-27T22:16:32.318Z,9.01
2018-03-27T22:18:58.078Z,8.95
2018-03-27T22:21:23.874Z,8.89
2018-03-27T22:23:49.915Z,8.92
2018-03-27T22:26:16.558Z,8.89
2018-03-27T22:28:42.310Z,8.87
2018-03-27T22:31:08.080Z,8.86
2018-03-27T22:33:33.879Z,8.89
2018-03-27T22:35:59.625Z,8.90
2018-03-27T22:38:25.377Z,8.92
2018-03-27T22:40:51.140Z,8.89
2018-03-27T22:43:16.875Z,8.86
2018-03-27T22:45:42.637Z,8.87
2018-03-27T22:48:08.415Z,8.87
2018-03-27T22:50:34.780Z,8.83
2018-03-27T22:53:00.536Z,8.80
2018-03-27T22:55:26.289Z,8.80
2018-03-27T22:57:52.029Z,8.78
2018-03-27T23:00:17.801Z,8.80
2018-03-27T23:02:43.555Z,8.79
2018-03-27T23:05:09.305Z,8.78
2018-03-27T23:07:35.517Z,8.77
2018-03-27T23:10:01.277Z,8.76
2018-03-27T23:12:27.033Z,8.74
2018-03-27T23:14:52.809Z,8.74
2018-03-27T23:17:18.563Z,8.75
2018-03-27T23:19:44.329Z,8.64
2018-03-27T23:22:10.102Z,8.75
2018-03-27T23:24:35.853Z,8.75
2018-03-27T23:27:01.984Z,8.74
2018-03-27T23:29:27.766Z,8.78
2018-03-27T23:31:53.513Z,8.80
2018-03-27T23:34:19.270Z,8.79
2018-03-27T23:36:45.048Z,8.72
2018-03-27T23:39:10.808Z,8.70
2018-03-27T23:41:36.581Z,8.71
2018-03-27T23:44:02.333Z,8.63
2018-03-27T23:46:28.081Z,8.58
2018-03-27T23:48:53.840Z,8.50
2018-03-27T23:51:19.612Z,8.45
2018-03-27T23:53:45.751Z,8.40
2018-03-27T23:56:11.541Z,8.42
2018-03-27T23:58:37.288Z,8.46
